METAR Data
IDs: Format: Raw Decoded Include TAF

Data at: 1025 UTC 30 Oct 2020

METAR for:KHCR (Heber City Muni, UT, US)
Text:KHCR 301015Z AUTO 00000KT 10SM CLR M05/M07 A3029 RMK AO2
Temperature: -5.0°C ( 23°F)
Dewpoint: -7.0°C ( 19°F) [RH = 86%]
Pressure (altimeter):30.29 inches Hg (1025.8 mb)
Winds:calm
Visibility:10 or more sm (16+ km)
Ceiling:at least 12,000 feet AGL
Clouds:sky clear below 12,000 feet AGL
QC Flag:automated observation with no human augmentation